Time;durP1;ratioP1;P1;durP2;ratioP2;P2;SDS_P1;SDS_P2;PMS_P1;PMS_P2;Temp;Humidity;BMP_temperature;BMP_pressure;BME280_temperature;BME280_humidity;BME280_pressure;Samples;Min_cycle;Max_cycle;Signal;HPM_P1;HPM_P2
2023/08/29 00:00:30;;;;;;;;;2.33;2.33;;;;;15.89;64.89;100650.75;6184266;23;45328;-86
2023/08/29 00:02:55;;;;;;;;;4.67;4.67;;;;;15.93;65.09;100657.59;6184871;22;45171;-85
2023/08/29 00:05:20;;;;;;;;;4.33;4.33;;;;;16.10;64.84;100691.16;6184034;22;45224;-85
2023/08/29 00:07:46;;;;;;;;;4.00;4.00;;;;;16.26;65.03;100715.81;6182314;23;45520;-86
2023/08/29 00:10:11;;;;;;;;;4.00;4.00;;;;;16.10;65.12;100693.84;6182317;23;45363;-86
2023/08/29 00:12:37;;;;;;;;;8.67;5.33;;;;;16.20;64.98;100701.06;6184455;23;45360;-85
2023/08/29 00:15:06;;;;;;;;;5.00;4.00;;;;;16.33;64.99;100717.06;6183241;23;46407;-85
2023/08/29 00:17:31;;;;;;;;;3.00;3.00;;;;;16.29;65.22;100710.22;6183527;22;45291;-84
2023/08/29 00:19:57;;;;;;;;;3.00;3.00;;;;;16.12;65.19;100673.09;6183142;23;45229;-85
2023/08/29 00:22:22;;;;;;;;;3.00;3.00;;;;;16.34;65.37;100708.03;6183877;23;45187;-86
2023/08/29 00:24:52;;;;;;;;;5.33;3.00;;;;;16.30;65.08;100703.88;6183218;22;45555;-86
2023/08/29 00:27:19;;;;;;;;;3.00;1.00;;;;;16.31;65.33;100710.09;6182881;22;45370;-85
2023/08/29 00:29:45;;;;;;;;;4.00;3.00;;;;;16.09;65.31;100689.44;6181690;23;45355;-85
2023/08/29 00:32:10;;;;;;;;;6.00;3.67;;;;;16.21;65.33;100709.97;6183678;22;45221;-86
2023/08/29 00:34:36;;;;;;;;;2.00;2.00;;;;;15.90;65.63;100656.00;6183517;22;45386;-86
2023/08/29 00:37:01;;;;;;;;;2.33;2.00;;;;;16.06;65.52;100678.97;6181146;23;45214;-86
2023/08/29 00:39:27;;;;;;;;;7.33;3.67;;;;;16.33;65.85;100719.75;6180953;23;45373;-86
2023/08/29 00:41:52;;;;;;;;;3.33;3.33;;;;;16.21;65.96;100702.75;6182831;23;45573;-86
2023/08/29 00:44:18;;;;;;;;;4.00;4.00;;;;;16.23;65.79;100699.94;6182936;22;46163;-86
2023/08/29 00:46:44;;;;;;;;;4.00;3.00;;;;;16.34;65.49;100718.75;6180929;23;45952;-85
2023/08/29 00:49:13;;;;;;;;;4.33;4.33;;;;;16.23;65.90;100689.22;6182045;23;45301;-85
2023/08/29 00:51:39;;;;;;;;;2.33;2.33;;;;;16.25;65.96;100703.38;6184396;22;45253;-85
2023/08/29 00:54:06;;;;;;;;;2.33;2.33;;;;;16.09;66.09;100681.38;6184039;22;46213;-85
2023/08/29 00:56:32;;;;;;;;;3.67;3.67;;;;;16.20;65.76;100694.84;6183610;22;45249;-85
2023/08/29 00:58:59;;;;;;;;;4.00;4.00;;;;;16.06;65.77;100681.63;6184049;22;45213;-85
2023/08/29 01:01:24;;;;;;;;;3.00;3.00;;;;;15.86;66.06;100656.34;6184721;22;45455;-85
2023/08/29 01:03:50;;;;;;;;;2.33;2.33;;;;;15.65;66.83;100629.38;6184414;23;46045;-85
2023/08/29 01:06:15;;;;;;;;;2.67;2.67;;;;;15.65;67.11;100645.44;6182494;23;45292;-86
2023/08/29 01:08:43;;;;;;;;;6.33;3.00;;;;;15.90;67.13;100677.47;6182158;23;45276;-86
2023/08/29 01:11:20;;;;;;;;;2.00;2.00;;;;;15.86;67.24;100677.78;6183949;22;45494;-85
2023/08/29 01:14:00;;;;;;;;;3.00;1.00;;;;;15.76;67.14;100653.53;6184304;22;45280;-84
2023/08/29 01:16:33;;;;;;;;;3.33;2.67;;;;;16.09;67.05;100702.84;6184342;22;45171;-85
2023/08/29 01:19:00;;;;;;;;;3.67;3.67;;;;;16.09;67.01;100703.72;6184707;22;45343;-85
2023/08/29 01:21:28;;;;;;;;;4.00;2.00;;;;;16.10;67.31;100699.19;6184414;22;45126;-84
2023/08/29 01:24:02;;;;;;;;;6.33;4.67;;;;;16.04;67.65;100688.94;6182185;23;47187;-86
2023/08/29 01:26:29;;;;;;;;;5.00;5.00;;;;;15.95;67.43;100679.78;6184371;22;45354;-84
2023/08/29 01:28:56;;;;;;;;;4.00;4.00;;;;;15.83;67.96;100676.22;6184530;22;45261;-85
2023/08/29 01:31:23;;;;;;;;;5.67;4.00;;;;;15.80;68.13;100667.56;6184767;23;45185;-85
2023/08/29 01:33:49;;;;;;;;;3.67;3.67;;;;;15.81;68.46;100683.53;6184390;22;45462;-86
2023/08/29 01:36:15;;;;;;;;;4.00;4.00;;;;;15.57;68.37;100637.09;6182425;23;45769;-86
2023/08/29 01:38:40;;;;;;;;;3.00;3.00;;;;;15.82;68.65;100695.97;6185185;23;45301;-85
2023/08/29 01:41:05;;;;;;;;;3.00;3.00;;;;;15.75;69.25;100692.00;6185596;23;45550;-85
2023/08/29 01:43:31;;;;;;;;;7.00;3.33;;;;;15.55;69.19;100673.88;6184803;23;45321;-86
2023/08/29 01:45:56;;;;;;;;;5.00;3.67;;;;;15.45;69.42;100656.78;6184078;23;45307;-87
2023/08/29 01:48:22;;;;;;;;;4.00;4.00;;;;;15.44;69.38;100647.88;6181915;23;45317;-85
2023/08/29 01:50:48;;;;;;;;;3.00;1.33;;;;;15.52;69.42;100671.44;6182273;23;45297;-87
2023/08/29 01:53:13;;;;;;;;;4.33;4.33;;;;;15.03;69.14;100590.22;6183863;22;46281;-85
2023/08/29 01:55:40;;;;;;;;;4.67;4.67;;;;;15.18;69.69;100631.09;6184407;23;45320;-86
2023/08/29 01:58:07;;;;;;;;;4.00;4.00;;;;;15.57;69.99;100696.06;6184277;23;45246;-86
2023/08/29 02:00:34;;;;;;;;;6.00;6.00;;;;;15.54;70.00;100697.16;6184311;22;45180;-87
2023/08/29 02:02:59;;;;;;;;;4.00;4.00;;;;;15.53;70.09;100695.44;6183875;22;46260;-86
2023/08/29 02:05:24;;;;;;;;;4.00;4.00;;;;;15.53;69.85;100690.09;6184224;23;45723;-87
2023/08/29 02:07:50;;;;;;;;;5.33;4.67;;;;;15.26;70.57;100654.63;6182620;22;45344;-84
2023/08/29 02:10:16;;;;;;;;;4.67;3.00;;;;;15.15;71.19;100658.09;6182676;23;45191;-86
2023/08/29 02:12:41;;;;;;;;;5.00;3.67;;;;;15.04;71.00;100628.59;6183756;22;45481;-84
2023/08/29 02:15:07;;;;;;;;;6.67;4.67;;;;;15.38;71.03;100685.03;6184242;22;53619;-84
2023/08/29 02:17:33;;;;;;;;;4.33;4.33;;;;;15.33;71.33;100683.53;6185173;22;45278;-86
2023/08/29 02:19:58;;;;;;;;;3.00;3.00;;;;;15.19;71.50;100670.31;6184109;23;45573;-86
2023/08/29 02:22:24;;;;;;;;;8.33;6.00;;;;;15.14;71.84;100677.84;6184315;22;45421;-85
2023/08/29 02:24:49;;;;;;;;;7.00;5.00;;;;;15.16;72.25;100697.31;6184176;23;45378;-86
2023/08/29 02:27:14;;;;;;;;;6.67;5.00;;;;;15.09;72.27;100690.69;6182554;23;45421;-86
2023/08/29 02:29:40;;;;;;;;;5.67;5.33;;;;;15.07;72.15;100681.91;6183921;22;45458;-85
2023/08/29 02:32:05;;;;;;;;;5.00;5.00;;;;;15.24;72.30;100702.97;6184188;22;46204;-86
2023/08/29 02:34:31;;;;;;;;;6.67;6.67;;;;;15.29;71.83;100708.84;6184901;22;45300;-85
2023/08/29 02:36:56;;;;;;;;;6.33;6.00;;;;;15.29;71.83;100700.81;6184975;22;45303;-86
2023/08/29 02:39:21;;;;;;;;;6.67;5.67;;;;;15.39;71.78;100713.53;6182342;23;45209;-85
2023/08/29 02:41:47;;;;;;;;;4.33;4.33;;;;;15.03;71.71;100654.50;6181461;23;48243;-85
2023/08/29 02:44:13;;;;;;;;;5.67;4.00;;;;;15.36;72.69;100703.88;6184101;22;45191;-85
2023/08/29 02:46:38;;;;;;;;;6.00;5.00;;;;;15.41;71.96;100708.91;6184477;22;45181;-84
2023/08/29 02:49:03;;;;;;;;;6.00;5.00;;;;;15.27;72.28;100684.00;6184423;23;45442;-85
2023/08/29 02:51:29;;;;;;;;;3.67;3.00;;;;;15.42;72.12;100708.78;6184286;23;45473;-85
2023/08/29 02:53:54;;;;;;;;;8.67;6.33;;;;;15.33;71.77;100686.19;6184454;23;45211;-85
2023/08/29 02:56:19;;;;;;;;;4.00;4.00;;;;;15.44;72.32;100704.16;6184621;22;45172;-85
2023/08/29 02:58:46;;;;;;;;;4.33;4.33;;;;;15.47;71.63;100705.75;6185368;23;45141;-84
2023/08/29 03:01:12;;;;;;;;;5.00;5.00;;;;;15.54;71.43;100707.03;6185861;23;45360;-85
2023/08/29 03:03:38;;;;;;;;;7.00;6.67;;;;;15.26;71.56;100650.13;6183728;23;45711;-84
2023/08/29 03:06:03;;;;;;;;;5.33;5.33;;;;;15.58;71.66;100697.78;6186502;22;45397;-86
2023/08/29 03:08:29;;;;;;;;;7.33;6.00;;;;;15.41;71.52;100666.88;6184906;22;45597;-85
2023/08/29 03:10:55;;;;;;;;;5.00;5.00;;;;;15.54;71.93;100690.94;6182626;23;48005;-86
2023/08/29 03:13:21;;;;;;;;;6.33;6.00;;;;;15.49;71.85;100687.72;6184591;22;45268;-85
2023/08/29 03:15:47;;;;;;;;;5.00;4.00;;;;;15.50;71.99;100686.78;6185157;22;45231;-85
2023/08/29 03:18:13;;;;;;;;;9.00;8.67;;;;;15.40;72.43;100677.72;6185000;22;45415;-84
2023/08/29 03:20:39;;;;;;;;;8.00;7.67;;;;;15.26;72.37;100641.25;6184370;22;45264;-85
2023/08/29 03:23:05;;;;;;;;;4.33;4.33;;;;;15.57;71.67;100677.31;6186904;22;45303;-84
2023/08/29 03:25:30;;;;;;;;;6.00;5.33;;;;;15.60;71.84;100674.41;6191970;23;46102;-86
2023/08/29 03:27:55;;;;;;;;;5.67;4.33;;;;;15.32;72.24;100636.25;6191153;23;57831;-85
2023/08/29 03:30:20;;;;;;;;;4.00;4.00;;;;;15.65;72.11;100680.31;6193764;22;45253;-86
2023/08/29 03:32:49;;;;;;;;;8.33;4.33;;;;;15.51;72.89;100675.09;6198457;23;53925;-86
2023/08/29 03:35:15;;;;;;;;;4.67;4.67;;;;;15.65;72.03;100688.34;6199570;23;45303;-86
2023/08/29 03:37:40;;;;;;;;;6.67;6.00;;;;;15.53;72.36;100673.16;6206011;22;45256;-85
2023/08/29 03:40:06;;;;;;;;;3.67;3.33;;;;;15.55;72.99;100681.94;6190253;23;46464;-85
2023/08/29 03:42:31;;;;;;;;;7.67;6.67;;;;;15.46;73.00;100672.75;6187531;22;45252;-85
2023/08/29 03:44:57;;;;;;;;;14.67;10.33;;;;;15.46;73.34;100688.81;6188849;23;45264;-85
2023/08/29 03:47:23;;;;;;;;;10.00;10.00;;;;;14.97;73.76;100611.25;6186168;23;45230;-85
2023/08/29 03:49:49;;;;;;;;;15.33;13.33;;;;;15.01;74.03;100628.81;6184397;22;45351;-85
2023/08/29 03:52:26;;;;;;;;;16.67;12.67;;;;;15.32;74.14;100676.47;6182300;23;45222;-85
2023/08/29 03:54:55;;;;;;;;;13.33;11.33;;;;;15.29;74.29;100682.06;6184359;23;45478;-85
2023/08/29 03:57:23;;;;;;;;;11.33;4.67;;;;;15.27;74.25;100678.63;6184361;22;45232;-85
2023/08/29 03:59:48;;;;;;;;;12.00;11.33;;;;;15.15;74.81;100663.47;6183072;22;45229;-86
2023/08/29 04:02:13;;;;;;;;;9.67;9.67;;;;;15.21;74.82;100671.03;6184258;23;45268;-85
2023/08/29 04:04:39;;;;;;;;;13.33;12.00;;;;;14.90;74.62;100631.41;6184622;23;45233;-86
2023/08/29 04:07:05;;;;;;;;;11.67;11.67;;;;;14.75;74.69;100607.47;6183739;23;45178;-84
2023/08/29 04:09:30;;;;;;;;;9.33;9.00;;;;;14.87;74.68;100626.31;6183473;23;45556;-87
2023/08/29 04:11:56;;;;;;;;;13.67;11.33;;;;;15.01;75.08;100653.78;6181950;22;45355;-85
2023/08/29 04:14:21;;;;;;;;;9.67;8.00;;;;;14.94;75.09;100641.78;6184173;23;45242;-86
2023/08/29 04:16:48;;;;;;;;;9.33;8.33;;;;;15.05;75.46;100674.00;6184243;22;45520;-85
2023/08/29 04:19:14;;;;;;;;;11.67;11.33;;;;;14.93;75.51;100652.63;6183725;23;45259;-86
2023/08/29 04:21:39;;;;;;;;;21.67;19.67;;;;;14.90;75.85;100659.06;6183318;23;45376;-85
2023/08/29 04:24:05;;;;;;;;;10.33;10.33;;;;;14.84;75.30;100638.06;6183717;23;45261;-85
2023/08/29 04:26:30;;;;;;;;;9.67;8.00;;;;;14.99;75.92;100657.53;6184088;23;45342;-85
2023/08/29 04:28:55;;;;;;;;;9.67;9.00;;;;;14.82;76.11;100644.50;6185979;23;46137;-85
2023/08/29 04:31:21;;;;;;;;;8.00;8.00;;;;;14.97;75.88;100656.75;6183677;23;45439;-85
2023/08/29 04:33:47;;;;;;;;;6.33;6.33;;;;;14.93;76.67;100671.34;6182261;23;45237;-85
2023/08/29 04:36:16;;;;;;;;;9.33;7.00;;;;;14.87;76.86;100669.16;6181676;23;52089;-86
2023/08/29 04:38:42;;;;;;;;;6.67;6.67;;;;;14.44;76.06;100592.78;6183418;22;45204;-84
2023/08/29 04:41:08;;;;;;;;;9.00;8.00;;;;;14.61;76.75;100634.41;6181400;23;45518;-86
2023/08/29 04:43:33;;;;;;;;;8.00;8.00;;;;;14.59;77.43;100628.31;6181386;23;45355;-86
2023/08/29 04:45:58;;;;;;;;;8.33;8.33;;;;;14.59;77.41;100638.16;6182044;23;45499;-85
2023/08/29 04:48:24;;;;;;;;;13.00;9.00;;;;;14.28;78.27;100600.16;6182191;23;47942;-86
2023/08/29 04:50:49;;;;;;;;;19.67;19.67;;;;;14.60;78.24;100662.13;6185334;23;46897;-85
2023/08/29 04:53:14;;;;;;;;;11.67;9.33;;;;;14.23;78.69;100614.84;6183482;22;45327;-85
2023/08/29 04:55:39;;;;;;;;;8.00;7.00;;;;;14.52;78.97;100663.63;6183944;23;45578;-86
2023/08/29 04:58:05;;;;;;;;;8.33;8.33;;;;;14.40;78.91;100651.94;6182541;23;53599;-86
2023/08/29 05:00:30;;;;;;;;;8.00;6.33;;;;;14.32;78.88;100646.28;6181601;23;60799;-85
2023/08/29 05:02:56;;;;;;;;;6.67;6.67;;;;;14.21;79.35;100627.47;6183263;22;45276;-86
2023/08/29 05:05:21;;;;;;;;;14.67;9.00;;;;;14.39;79.78;100655.59;6183711;23;45571;-85
2023/08/29 05:07:46;;;;;;;;;9.00;9.00;;;;;14.43;79.60;100675.81;6183292;23;45273;-84
2023/08/29 05:10:12;;;;;;;;;7.00;7.00;;;;;14.37;79.00;100646.81;6181820;23;45273;-85
2023/08/29 05:12:37;;;;;;;;;7.00;6.00;;;;;14.50;79.20;100665.56;6181052;23;45504;-85
2023/08/29 05:15:03;;;;;;;;;7.33;7.00;;;;;14.48;79.22;100665.69;6189423;23;45118;-84
2023/08/29 05:17:28;;;;;;;;;10.33;8.00;;;;;14.30;79.37;100645.53;6198439;23;46396;-85
2023/08/29 05:19:54;;;;;;;;;10.00;10.00;;;;;14.23;79.90;100633.56;6189634;23;45316;-85
2023/08/29 05:22:21;;;;;;;;;14.67;8.00;;;;;14.29;80.27;100654.53;6185067;23;45209;-84
2023/08/29 05:24:46;;;;;;;;;9.33;7.33;;;;;14.11;79.21;100612.06;6183644;23;45498;-85
2023/08/29 05:27:11;;;;;;;;;8.00;8.00;;;;;14.40;79.99;100679.56;6184844;23;48786;-82
2023/08/29 05:29:37;;;;;;;;;10.33;10.00;;;;;14.08;79.89;100616.78;6185433;23;45240;-85
2023/08/29 05:32:02;;;;;;;;;10.67;10.67;;;;;14.36;79.92;100653.13;6193291;23;45305;-85
2023/08/29 05:34:28;;;;;;;;;8.33;8.33;;;;;14.32;80.17;100632.91;6188669;23;45300;-85
2023/08/29 05:36:53;;;;;;;;;8.00;8.00;;;;;14.40;79.26;100633.22;6189475;23;45756;-86
2023/08/29 05:39:19;;;;;;;;;7.00;7.00;;;;;14.40;79.51;100627.88;6189501;23;45405;-84
2023/08/29 05:41:46;;;;;;;;;8.00;7.33;;;;;14.70;78.99;100667.66;6185797;23;45373;-87
2023/08/29 05:44:12;;;;;;;;;9.67;9.67;;;;;14.54;79.11;100633.13;6159847;23;45217;-85
2023/08/29 05:46:42;;;;;;;;;7.67;7.00;;;;;14.81;79.20;100669.56;6211338;22;45482;-84
2023/08/29 05:49:07;;;;;;;;;10.67;7.67;;;;;14.75;78.35;100644.09;6183908;23;45431;-84
2023/08/29 05:51:33;;;;;;;;;6.67;6.67;;;;;14.73;78.34;100630.00;6183440;23;45386;-85
2023/08/29 05:53:59;;;;;;;;;6.00;6.00;;;;;14.94;77.57;100649.81;6184157;23;45407;-85
2023/08/29 05:56:24;;;;;;;;;10.00;8.33;;;;;15.04;77.12;100644.66;6183807;22;46384;-85
2023/08/29 05:58:50;;;;;;;;;14.00;8.33;;;;;15.19;77.54;100659.59;6181951;23;45325;-88
2023/08/29 06:01:15;;;;;;;;;9.00;9.00;;;;;15.01;76.88;100623.47;6185846;22;45408;-89
2023/08/29 06:03:41;;;;;;;;;6.00;6.00;;;;;14.82;76.64;100593.63;6190478;23;45240;-88
2023/08/29 06:06:07;;;;;;;;;9.00;8.67;;;;;15.13;76.64;100638.63;6186938;23;45782;-89
2023/08/29 06:08:35;;;;;;;;;10.00;8.67;;;;;15.35;76.27;100664.66;6186320;23;45324;-87
2023/08/29 06:11:01;;;;;;;;;15.67;10.67;;;;;14.96;76.34;100590.78;6185722;23;45250;-83
2023/08/29 06:13:27;;;;;;;;;8.33;8.33;;;;;15.30;75.45;100629.31;6183123;22;45269;-86
2023/08/29 06:15:53;;;;;;;;;10.00;8.00;;;;;15.62;75.40;100668.00;6183411;23;45368;-83
2023/08/29 06:18:18;;;;;;;;;9.67;9.67;;;;;15.70;74.74;100669.22;6183379;23;45351;-84
2023/08/29 06:20:44;;;;;;;;;12.00;10.67;;;;;15.77;74.73;100660.59;6183207;22;45395;-83
2023/08/29 06:23:09;;;;;;;;;14.33;11.00;;;;;15.86;74.26;100646.47;6183258;23;45209;-83
2023/08/29 06:25:35;;;;;;;;;12.00;10.67;;;;;16.04;73.60;100643.34;6183169;23;45292;-84
2023/08/29 06:28:00;;;;;;;;;10.00;9.00;;;;;16.56;72.43;100636.53;6182839;22;45273;-84
2023/08/29 06:30:26;;;;;;;;;10.00;9.00;;;;;17.07;69.74;100640.41;6183815;22;45268;-85
2023/08/29 06:32:51;;;;;;;;;14.33;12.00;;;;;17.38;69.17;100657.50;6183920;22;45539;-85
2023/08/29 06:35:17;;;;;;;;;11.00;10.00;;;;;17.26;68.61;100637.03;6183340;23;61408;-83
2023/08/29 06:37:42;;;;;;;;;11.00;9.33;;;;;17.12;69.20;100640.00;6183422;22;45299;-83
2023/08/29 06:40:10;;;;;;;;;12.67;9.67;;;;;16.82;69.84;100629.94;6180682;22;53002;-84
2023/08/29 06:42:35;;;;;;;;;9.67;9.67;;;;;16.91;70.21;100658.72;6183420;22;45482;-85
2023/08/29 06:45:01;;;;;;;;;10.33;10.33;;;;;16.91;70.43;100650.66;6183730;22;45433;-85
2023/08/29 06:47:26;;;;;;;;;7.00;7.00;;;;;16.92;70.45;100660.44;6190185;22;45180;-85
2023/08/29 06:49:55;;;;;;;;;10.33;10.33;;;;;16.66;70.75;100616.00;6189054;22;45170;-85
2023/08/29 06:52:23;;;;;;;;;10.00;10.00;;;;;16.87;70.50;100643.84;6192688;23;45439;-84
2023/08/29 06:54:48;;;;;;;;;10.67;10.67;;;;;16.99;70.01;100647.38;6192167;23;45205;-85
2023/08/29 06:57:13;;;;;;;;;10.67;9.67;;;;;17.02;69.85;100645.28;6188269;23;45169;-83
2023/08/29 06:59:39;;;;;;;;;13.33;13.33;;;;;17.06;69.86;100654.81;6208768;22;45174;-85
2023/08/29 07:02:04;;;;;;;;;11.00;10.00;;;;;17.07;69.80;100661.03;6183690;22;45519;-85
2023/08/29 07:04:30;;;;;;;;;11.67;11.33;;;;;17.21;69.60;100654.53;6181561;23;45930;-84
2023/08/29 07:06:55;;;;;;;;;11.00;9.67;;;;;18.13;67.48;100661.91;6182920;23;45325;-84
2023/08/29 07:09:20;;;;;;;;;10.33;10.33;;;;;18.37;64.83;100642.78;6183444;23;45177;-83
2023/08/29 07:11:46;;;;;;;;;13.33;11.67;;;;;18.27;64.98;100660.72;6183332;23;45162;-84
2023/08/29 07:14:11;;;;;;;;;11.00;10.67;;;;;18.15;65.98;100667.16;6184353;22;45573;-83
2023/08/29 07:16:36;;;;;;;;;10.67;10.67;;;;;17.96;66.38;100668.72;6183427;23;51401;-84
2023/08/29 07:19:02;;;;;;;;;13.00;11.00;;;;;17.91;66.77;100680.88;6194263;23;45225;-83
2023/08/29 07:21:28;;;;;;;;;13.00;12.00;;;;;17.83;66.89;100673.47;6188481;23;45252;-83
2023/08/29 07:23:56;;;;;;;;;9.67;9.67;;;;;17.57;67.10;100640.66;6184655;22;45339;-85
2023/08/29 07:26:21;;;;;;;;;9.00;9.00;;;;;17.75;66.99;100654.44;6184466;22;45410;-83
2023/08/29 07:28:46;;;;;;;;;13.67;13.00;;;;;17.91;66.86;100686.28;6185373;22;45342;-85
2023/08/29 07:31:11;;;;;;;;;16.00;14.00;;;;;17.87;66.81;100682.16;6186647;23;45193;-84
2023/08/29 07:33:37;;;;;;;;;12.33;11.67;;;;;18.02;66.92;100672.75;6188473;23;46243;-84
2023/08/29 07:36:04;;;;;;;;;20.67;14.00;;;;;18.34;65.57;100672.66;6187615;23;45192;-83
2023/08/29 07:38:29;;;;;;;;;14.00;13.00;;;;;18.30;65.57;100675.75;6191045;23;45223;-82
2023/08/29 07:40:56;;;;;;;;;14.00;14.00;;;;;18.02;65.56;100645.84;6192165;23;45153;-84
2023/08/29 07:43:22;;;;;;;;;12.00;10.67;;;;;18.14;65.92;100671.69;6183350;23;45345;-83
2023/08/29 07:45:50;;;;;;;;;11.00;10.00;;;;;18.21;65.50;100672.84;6180765;22;45296;-84
2023/08/29 07:48:16;;;;;;;;;17.00;15.33;;;;;18.25;65.39;100658.16;6183157;23;45360;-84
2023/08/29 07:50:41;;;;;;;;;9.33;8.00;;;;;18.39;65.13;100675.81;6183415;22;45379;-83
2023/08/29 07:53:06;;;;;;;;;8.33;7.67;;;;;18.35;65.28;100663.56;6183807;23;45359;-83
2023/08/29 07:55:32;;;;;;;;;11.67;11.67;;;;;18.40;65.44;100661.34;6193581;22;45244;-83
2023/08/29 07:57:57;;;;;;;;;10.00;10.00;;;;;18.11;65.36;100623.53;6190409;23;45233;-84
2023/08/29 08:00:23;;;;;;;;;15.67;13.67;;;;;18.45;65.50;100671.72;6194238;22;45128;-84
2023/08/29 08:02:48;;;;;;;;;15.67;14.00;;;;;18.48;65.10;100664.22;6191275;23;45245;-85
2023/08/29 08:05:15;;;;;;;;;11.00;10.00;;;;;18.49;65.26;100659.66;6189280;23;45190;-84
2023/08/29 08:07:43;;;;;;;;;13.67;12.00;;;;;18.60;65.07;100672.19;6191003;22;45294;-83
2023/08/29 08:10:13;;;;;;;;;12.33;10.00;;;;;18.65;65.03;100673.56;6188172;23;45322;-83
2023/08/29 08:12:40;;;;;;;;;12.33;12.33;;;;;18.67;65.02;100660.78;6187397;22;45102;-84
2023/08/29 08:15:07;;;;;;;;;13.00;12.00;;;;;18.69;64.99;100652.56;6193151;22;45186;-82
2023/08/29 08:17:35;;;;;;;;;9.00;8.67;;;;;18.67;64.95;100644.63;6188748;22;45378;-82
2023/08/29 08:20:06;;;;;;;;;11.33;9.67;;;;;18.83;64.82;100653.03;6191966;22;45331;-83
2023/08/29 08:22:32;;;;;;;;;21.67;12.33;;;;;18.77;64.46;100640.13;6188552;22;46066;-83
2023/08/29 08:24:57;;;;;;;;;8.67;8.67;;;;;18.88;64.02;100660.72;6183435;23;45169;-84
2023/08/29 08:27:22;;;;;;;;;13.00;10.00;;;;;18.87;62.71;100659.00;6186160;22;45265;-84
2023/08/29 08:29:48;;;;;;;;;9.33;7.67;;;;;18.76;63.46;100642.97;6188361;22;45549;-84
2023/08/29 08:32:13;;;;;;;;;8.67;7.00;;;;;18.80;63.35;100653.31;6186403;23;61491;-84
2023/08/29 08:34:38;;;;;;;;;8.67;8.00;;;;;18.88;63.20;100659.84;6192581;23;45334;-83
2023/08/29 08:37:03;;;;;;;;;10.33;9.67;;;;;18.88;62.82;100632.91;6193755;22;45251;-82
2023/08/29 08:39:31;;;;;;;;;9.33;7.00;;;;;19.06;62.57;100636.66;6193432;23;45261;-83
2023/08/29 08:41:57;;;;;;;;;8.00;7.00;;;;;19.19;61.64;100655.25;6192202;22;45201;-83
2023/08/29 08:44:24;;;;;;;;;7.33;7.33;;;;;19.22;60.19;100653.13;6192912;23;45342;-82
2023/08/29 08:46:52;;;;;;;;;6.33;6.33;;;;;19.27;60.32;100655.38;6191931;22;45249;-83
2023/08/29 08:49:18;;;;;;;;;4.00;4.00;;;;;19.12;59.77;100639.63;6191386;23;45126;-82
2023/08/29 08:51:46;;;;;;;;;6.00;5.00;;;;;19.16;59.51;100634.81;6190659;22;46493;-84
2023/08/29 08:54:12;;;;;;;;;6.00;5.67;;;;;19.33;60.10;100650.28;6188030;22;45364;-83
2023/08/29 08:56:38;;;;;;;;;6.00;4.00;;;;;19.35;59.05;100644.75;6186185;23;45142;-84
2023/08/29 08:59:04;;;;;;;;;5.00;5.00;;;;;19.34;57.99;100661.94;6185449;23;45241;-85
2023/08/29 09:01:29;;;;;;;;;6.00;5.00;;;;;19.36;57.44;100655.41;6185363;23;45479;-82
2023/08/29 09:03:56;;;;;;;;;5.33;5.33;;;;;19.12;57.78;100609.97;6185847;23;45169;-84
2023/08/29 09:06:21;;;;;;;;;5.00;5.00;;;;;19.06;57.30;100583.59;6184653;22;45379;-84
2023/08/29 09:08:46;;;;;;;;;3.33;3.33;;;;;19.52;56.66;100632.41;6182463;23;45596;-84
2023/08/29 09:11:12;;;;;;;;;4.00;4.00;;;;;19.66;57.05;100637.41;6185081;23;45134;-84
2023/08/29 09:13:45;;;;;;;;;7.00;5.33;;;;;19.79;57.50;100647.88;6184960;22;45170;-83
2023/08/29 09:16:11;;;;;;;;;4.33;4.33;;;;;19.80;56.74;100652.31;6185759;22;45183;-85
2023/08/29 09:18:36;;;;;;;;;4.00;4.00;;;;;19.78;57.08;100638.94;6184559;22;45499;-85
2023/08/29 09:21:04;;;;;;;;;3.67;3.00;;;;;19.88;56.74;100642.50;6184582;22;45944;-83
2023/08/29 09:23:37;;;;;;;;;2.00;2.00;;;;;20.01;56.35;100642.19;6185068;22;45335;-84
2023/08/29 09:26:04;;;;;;;;;4.00;3.00;;;;;20.14;55.38;100639.16;6184547;22;45218;-84
2023/08/29 09:28:29;;;;;;;;;3.00;3.00;;;;;20.37;54.72;100639.66;6184944;23;45593;-84
2023/08/29 09:31:03;;;;;;;;;5.67;4.67;;;;;20.60;55.39;100625.66;6184020;23;46541;-84
2023/08/29 09:33:28;;;;;;;;;11.67;8.00;;;;;20.64;54.21;100595.63;6184180;22;45276;-84
2023/08/29 09:35:54;;;;;;;;;7.00;5.00;;;;;20.85;53.59;100588.97;6184388;23;45272;-85
2023/08/29 09:38:19;;;;;;;;;11.67;6.33;;;;;20.71;53.47;100548.09;6184359;22;45347;-85
2023/08/29 09:40:46;;;;;;;;;9.33;8.00;;;;;21.06;53.43;100599.47;6183851;22;45404;-85
2023/08/29 09:43:15;;;;;;;;;10.33;7.00;;;;;21.18;53.58;100602.81;6185845;22;45315;-85
2023/08/29 09:45:41;;;;;;;;;7.67;6.00;;;;;21.14;52.34;100618.50;6186270;22;45268;-85
2023/08/29 09:48:08;;;;;;;;;5.67;4.33;;;;;21.00;52.00;100616.34;6184106;22;45249;-85
2023/08/29 09:50:37;;;;;;;;;15.67;9.67;;;;;20.81;52.85;100613.75;6184193;23;45910;-85
2023/08/29 09:53:03;;;;;;;;;8.67;5.67;;;;;20.62;52.39;100601.19;6184396;22;45399;-84
2023/08/29 09:55:35;;;;;;;;;3.33;3.33;;;;;20.82;51.97;100623.53;6184779;22;45288;-86
2023/08/29 09:58:01;;;;;;;;;5.00;3.00;;;;;20.69;52.88;100612.25;6185110;22;45220;-85
2023/08/29 10:00:27;;;;;;;;;3.67;3.67;;;;;20.61;53.25;100604.91;6187419;22;45414;-85
2023/08/29 10:02:57;;;;;;;;;8.00;5.00;;;;;20.49;53.02;100595.28;6187037;23;45629;-85
2023/08/29 10:05:26;;;;;;;;;5.00;5.00;;;;;20.65;52.40;100606.28;6189877;23;45292;-84
2023/08/29 10:07:57;;;;;;;;;3.33;3.33;;;;;20.81;52.40;100613.75;6189610;23;45406;-84
2023/08/29 10:10:23;;;;;;;;;4.00;3.00;;;;;20.94;52.43;100599.84;6188658;23;45960;-84
2023/08/29 10:12:50;;;;;;;;;3.67;3.00;;;;;21.07;50.54;100612.00;6188218;22;45364;-84
2023/08/29 10:15:17;;;;;;;;;7.00;6.33;;;;;21.09;50.38;100607.28;6190340;23;45370;-85
2023/08/29 10:17:43;;;;;;;;;5.33;5.33;;;;;21.04;50.23;100585.28;6185963;22;45407;-84
2023/08/29 10:20:12;;;;;;;;;8.67;6.33;;;;;21.14;50.51;100585.22;6184838;22;46291;-85
2023/08/29 10:22:40;;;;;;;;;6.33;6.00;;;;;21.17;51.25;100601.97;6185855;22;45148;-83
2023/08/29 10:25:06;;;;;;;;;3.33;3.33;;;;;21.33;51.29;100601.31;6211071;22;45278;-86
2023/08/29 10:27:33;;;;;;;;;7.00;7.00;;;;;21.40;48.82;100580.75;6186087;22;45295;-84
2023/08/29 10:30:01;;;;;;;;;12.00;5.67;;;;;21.79;49.46;100599.31;6186008;22;46169;-82
2023/08/29 10:32:28;;;;;;;;;3.67;3.67;;;;;22.07;49.36;100586.50;6185146;22;45365;-84
2023/08/29 10:34:53;;;;;;;;;5.00;4.00;;;;;22.45;48.93;100576.19;6185385;22;45360;-85
2023/08/29 10:37:20;;;;;;;;;3.67;2.33;;;;;22.73;47.56;100574.94;6184121;22;45354;-85
2023/08/29 10:39:48;;;;;;;;;7.33;5.33;;;;;22.71;46.63;100559.88;6183377;23;45346;-85
2023/08/29 10:42:16;;;;;;;;;3.33;3.33;;;;;22.72;44.68;100556.97;6183834;22;45170;-85
2023/08/29 10:44:46;;;;;;;;;3.50;3.50;;;;;22.99;45.71;100571.31;6184010;23;45228;-85
2023/08/29 10:47:30;;;;;;;;;5.00;3.75;;;;;23.13;45.88;100578.78;6185936;23;45304;-86
2023/08/29 10:50:06;;;;;;;;;5.00;5.00;;;;;23.29;44.83;100570.66;6182938;23;47391;-85
2023/08/29 10:52:41;;;;;;;;;4.00;4.00;;;;;23.00;47.31;100581.13;6182778;23;45410;-85
2023/08/29 10:55:24;;;;;;;;;10.00;6.67;;;;;22.56;49.56;100570.50;6184251;23;45397;-85
2023/08/29 10:57:58;;;;;;;;;7.00;5.00;;;;;22.12;51.28;100564.34;6184357;22;45400;-85
2023/08/29 11:00:41;;;;;;;;;7.33;7.33;;;;;21.78;52.84;100578.69;6184873;22;46360;-84
2023/08/29 11:03:07;;;;;;;;;6.00;5.00;;;;;21.56;53.56;100587.28;6183969;23;45269;-85
2023/08/29 11:05:38;;;;;;;;;7.00;6.67;;;;;21.37;53.96;100581.06;6185294;23;45272;-84
2023/08/29 11:08:22;;;;;;;;;4.33;4.33;;;;;20.97;53.91;100546.34;6184934;23;45213;-86
2023/08/29 11:11:16;;;;;;;;;8.00;6.33;;;;;20.87;54.23;100589.66;6183227;23;47265;-84
2023/08/29 11:14:03;;;;;;;;;7.00;7.00;;;;;20.53;54.89;100575.91;6187751;22;45373;-85
2023/08/29 11:16:30;;;;;;;;;7.00;6.00;;;;;20.40;55.21;100586.19;6184338;23;45137;-84
2023/08/29 11:19:13;;;;;;;;;8.00;6.00;;;;;20.30;55.48;100586.22;6183935;22;45401;-85